sensor_id;sensor_type;location;lat;lon;timestamp;temperature;humidity
12700;DHT22;6414;49.570;6.060;2023-07-31T00:00:10;17.20;99.90
12700;DHT22;6414;49.570;6.060;2023-07-31T00:02:56;17.20;99.90
12700;DHT22;6414;49.570;6.060;2023-07-31T00:05:42;17.20;99.90
12700;DHT22;6414;49.570;6.060;2023-07-31T00:08:28;17.10;99.90
12700;DHT22;6414;49.570;6.060;2023-07-31T00:11:14;17.10;99.90
12700;DHT22;6414;49.570;6.060;2023-07-31T00:14:00;17.10;99.90
12700;DHT22;6414;49.570;6.060;2023-07-31T00:16:46;17.10;99.90
12700;DHT22;6414;49.570;6.060;2023-07-31T00:19:32;17.00;99.90
12700;DHT22;6414;49.570;6.060;2023-07-31T00:22:19;16.90;99.90
12700;DHT22;6414;49.570;6.060;2023-07-31T00:25:05;16.90;99.90
12700;DHT22;6414;49.570;6.060;2023-07-31T00:27:51;16.80;99.90
12700;DHT22;6414;49.570;6.060;2023-07-31T00:30:37;16.80;99.90
12700;DHT22;6414;49.570;6.060;2023-07-31T00:33:23;16.80;99.90
12700;DHT22;6414;49.570;6.060;2023-07-31T00:36:09;16.70;99.90
12700;DHT22;6414;49.570;6.060;2023-07-31T00:38:56;16.70;99.90
12700;DHT22;6414;49.570;6.060;2023-07-31T00:41:42;16.70;99.90
12700;DHT22;6414;49.570;6.060;2023-07-31T00:44:28;16.80;99.90
12700;DHT22;6414;49.570;6.060;2023-07-31T00:47:14;16.80;99.90
12700;DHT22;6414;49.570;6.060;2023-07-31T00:50:00;16.80;99.90
12700;DHT22;6414;49.570;6.060;2023-07-31T00:52:46;16.80;99.90
12700;DHT22;6414;49.570;6.060;2023-07-31T00:55:32;16.80;99.90
12700;DHT22;6414;49.570;6.060;2023-07-31T00:58:18;16.90;99.90
12700;DHT22;6414;49.570;6.060;2023-07-31T01:01:04;16.80;99.90
12700;DHT22;6414;49.570;6.060;2023-07-31T01:03:51;16.90;99.90
12700;DHT22;6414;49.570;6.060;2023-07-31T01:06:40;16.80;99.90
12700;DHT22;6414;49.570;6.060;2023-07-31T01:09:29;16.80;99.90
12700;DHT22;6414;49.570;6.060;2023-07-31T01:12:15;16.80;99.90
12700;DHT22;6414;49.570;6.060;2023-07-31T01:15:08;16.80;99.90
12700;DHT22;6414;49.570;6.060;2023-07-31T01:17:53;16.80;99.90
12700;DHT22;6414;49.570;6.060;2023-07-31T01:20:39;16.80;99.90
12700;DHT22;6414;49.570;6.060;2023-07-31T01:26:36;16.70;99.90
12700;DHT22;6414;49.570;6.060;2023-07-31T01:29:38;16.70;99.90
12700;DHT22;6414;49.570;6.060;2023-07-31T01:32:24;16.70;99.90
12700;DHT22;6414;49.570;6.060;2023-07-31T01:35:10;16.70;99.90
12700;DHT22;6414;49.570;6.060;2023-07-31T01:37:57;16.70;99.90
12700;DHT22;6414;49.570;6.060;2023-07-31T01:40:43;16.70;99.90
12700;DHT22;6414;49.570;6.060;2023-07-31T01:43:29;16.60;99.90
12700;DHT22;6414;49.570;6.060;2023-07-31T01:46:15;16.70;99.90
12700;DHT22;6414;49.570;6.060;2023-07-31T01:49:02;16.60;99.90
12700;DHT22;6414;49.570;6.060;2023-07-31T01:51:47;16.60;99.90
12700;DHT22;6414;49.570;6.060;2023-07-31T01:54:34;16.60;99.90
12700;DHT22;6414;49.570;6.060;2023-07-31T01:57:21;16.60;99.90
12700;DHT22;6414;49.570;6.060;2023-07-31T02:00:07;16.50;99.90
12700;DHT22;6414;49.570;6.060;2023-07-31T02:02:53;16.50;99.90
12700;DHT22;6414;49.570;6.060;2023-07-31T02:05:45;16.50;99.90
12700;DHT22;6414;49.570;6.060;2023-07-31T02:08:31;16.50;99.90
12700;DHT22;6414;49.570;6.060;2023-07-31T02:11:18;16.50;99.90
12700;DHT22;6414;49.570;6.060;2023-07-31T02:14:03;16.50;99.90
12700;DHT22;6414;49.570;6.060;2023-07-31T02:16:49;16.50;99.90
12700;DHT22;6414;49.570;6.060;2023-07-31T02:19:36;16.50;99.90
12700;DHT22;6414;49.570;6.060;2023-07-31T02:22:22;16.50;99.90
12700;DHT22;6414;49.570;6.060;2023-07-31T02:25:08;16.50;99.90
12700;DHT22;6414;49.570;6.060;2023-07-31T02:27:54;16.50;99.90
12700;DHT22;6414;49.570;6.060;2023-07-31T02:30:43;16.50;99.90
12700;DHT22;6414;49.570;6.060;2023-07-31T02:33:27;16.60;99.90
12700;DHT22;6414;49.570;6.060;2023-07-31T02:36:13;16.50;99.90
12700;DHT22;6414;49.570;6.060;2023-07-31T02:38:59;16.50;99.90
12700;DHT22;6414;49.570;6.060;2023-07-31T02:41:46;16.50;99.90
12700;DHT22;6414;49.570;6.060;2023-07-31T02:44:31;16.40;99.90
12700;DHT22;6414;49.570;6.060;2023-07-31T02:47:18;16.40;99.90
12700;DHT22;6414;49.570;6.060;2023-07-31T02:50:04;16.40;99.90
12700;DHT22;6414;49.570;6.060;2023-07-31T02:52:50;16.50;99.90
12700;DHT22;6414;49.570;6.060;2023-07-31T02:55:37;16.40;99.90
12700;DHT22;6414;49.570;6.060;2023-07-31T02:58:23;16.40;99.90
12700;DHT22;6414;49.570;6.060;2023-07-31T03:01:10;16.40;99.90
12700;DHT22;6414;49.570;6.060;2023-07-31T03:03:56;16.30;99.90
12700;DHT22;6414;49.570;6.060;2023-07-31T03:06:42;16.30;99.90
12700;DHT22;6414;49.570;6.060;2023-07-31T03:09:29;16.30;99.90
12700;DHT22;6414;49.570;6.060;2023-07-31T03:12:15;16.40;99.90
12700;DHT22;6414;49.570;6.060;2023-07-31T03:15:01;16.40;99.90
12700;DHT22;6414;49.570;6.060;2023-07-31T03:17:47;16.40;99.90
12700;DHT22;6414;49.570;6.060;2023-07-31T03:20:33;16.40;99.90
12700;DHT22;6414;49.570;6.060;2023-07-31T03:23:20;16.30;99.90
12700;DHT22;6414;49.570;6.060;2023-07-31T03:26:07;16.30;99.90
12700;DHT22;6414;49.570;6.060;2023-07-31T03:28:53;16.40;99.90
12700;DHT22;6414;49.570;6.060;2023-07-31T03:31:39;16.40;99.90
12700;DHT22;6414;49.570;6.060;2023-07-31T03:34:25;16.40;99.90
12700;DHT22;6414;49.570;6.060;2023-07-31T03:37:11;16.30;99.90
12700;DHT22;6414;49.570;6.060;2023-07-31T03:39:58;16.40;99.90
12700;DHT22;6414;49.570;6.060;2023-07-31T03:42:44;16.30;99.90
12700;DHT22;6414;49.570;6.060;2023-07-31T03:45:30;16.30;99.90
12700;DHT22;6414;49.570;6.060;2023-07-31T03:48:17;16.30;99.90
12700;DHT22;6414;49.570;6.060;2023-07-31T03:51:04;16.20;99.90
12700;DHT22;6414;49.570;6.060;2023-07-31T03:53:50;16.20;99.90
12700;DHT22;6414;49.570;6.060;2023-07-31T03:56:36;16.20;99.90
12700;DHT22;6414;49.570;6.060;2023-07-31T03:59:22;16.10;99.90
12700;DHT22;6414;49.570;6.060;2023-07-31T04:02:08;16.00;99.90
12700;DHT22;6414;49.570;6.060;2023-07-31T04:04:54;16.00;99.90
12700;DHT22;6414;49.570;6.060;2023-07-31T04:07:41;16.00;99.90
12700;DHT22;6414;49.570;6.060;2023-07-31T04:10:27;16.00;99.90
12700;DHT22;6414;49.570;6.060;2023-07-31T04:13:14;16.00;99.90
12700;DHT22;6414;49.570;6.060;2023-07-31T04:16:00;15.90;99.90
12700;DHT22;6414;49.570;6.060;2023-07-31T04:18:46;15.80;99.90
12700;DHT22;6414;49.570;6.060;2023-07-31T04:21:32;15.80;99.90
12700;DHT22;6414;49.570;6.060;2023-07-31T04:24:18;15.90;99.90
12700;DHT22;6414;49.570;6.060;2023-07-31T04:27:04;15.90;99.90
12700;DHT22;6414;49.570;6.060;2023-07-31T04:29:50;15.80;99.90
12700;DHT22;6414;49.570;6.060;2023-07-31T04:32:36;15.80;99.90
12700;DHT22;6414;49.570;6.060;2023-07-31T04:35:22;15.70;99.90
12700;DHT22;6414;49.570;6.060;2023-07-31T04:38:08;15.80;99.90
12700;DHT22;6414;49.570;6.060;2023-07-31T04:40:54;15.70;99.90
12700;DHT22;6414;49.570;6.060;2023-07-31T04:43:40;15.70;99.90
12700;DHT22;6414;49.570;6.060;2023-07-31T04:46:26;15.70;99.90
12700;DHT22;6414;49.570;6.060;2023-07-31T04:49:12;15.70;99.90
12700;DHT22;6414;49.570;6.060;2023-07-31T04:51:58;15.70;99.90
12700;DHT22;6414;49.570;6.060;2023-07-31T04:54:44;15.70;99.90
12700;DHT22;6414;49.570;6.060;2023-07-31T04:57:30;15.70;99.90
12700;DHT22;6414;49.570;6.060;2023-07-31T05:00:16;15.70;99.90
12700;DHT22;6414;49.570;6.060;2023-07-31T05:03:03;15.60;99.90
12700;DHT22;6414;49.570;6.060;2023-07-31T05:05:49;15.60;99.90
12700;DHT22;6414;49.570;6.060;2023-07-31T05:08:35;15.60;99.90
12700;DHT22;6414;49.570;6.060;2023-07-31T05:11:21;15.70;99.90
12700;DHT22;6414;49.570;6.060;2023-07-31T05:14:07;15.70;99.90
12700;DHT22;6414;49.570;6.060;2023-07-31T05:16:53;15.70;99.90
12700;DHT22;6414;49.570;6.060;2023-07-31T05:19:40;15.70;99.90
12700;DHT22;6414;49.570;6.060;2023-07-31T05:22:26;15.70;99.90
12700;DHT22;6414;49.570;6.060;2023-07-31T05:25:12;15.70;99.90
12700;DHT22;6414;49.570;6.060;2023-07-31T05:27:58;15.80;99.90
12700;DHT22;6414;49.570;6.060;2023-07-31T05:30:44;15.70;99.90
12700;DHT22;6414;49.570;6.060;2023-07-31T05:33:30;15.70;99.90
12700;DHT22;6414;49.570;6.060;2023-07-31T05:36:16;15.80;99.90
12700;DHT22;6414;49.570;6.060;2023-07-31T05:39:02;15.90;99.90
12700;DHT22;6414;49.570;6.060;2023-07-31T05:41:48;15.90;99.90
12700;DHT22;6414;49.570;6.060;2023-07-31T05:44:34;16.10;99.90
12700;DHT22;6414;49.570;6.060;2023-07-31T05:47:20;16.20;99.90
12700;DHT22;6414;49.570;6.060;2023-07-31T05:50:06;16.40;99.90
12700;DHT22;6414;49.570;6.060;2023-07-31T05:52:52;16.50;99.90
12700;DHT22;6414;49.570;6.060;2023-07-31T05:55:38;16.50;99.90
12700;DHT22;6414;49.570;6.060;2023-07-31T05:58:24;16.60;99.90
12700;DHT22;6414;49.570;6.060;2023-07-31T06:01:10;16.70;99.90
12700;DHT22;6414;49.570;6.060;2023-07-31T06:03:56;16.70;99.90
12700;DHT22;6414;49.570;6.060;2023-07-31T06:06:42;16.80;99.90
12700;DHT22;6414;49.570;6.060;2023-07-31T06:09:28;16.80;99.90
12700;DHT22;6414;49.570;6.060;2023-07-31T06:12:14;16.70;99.90
12700;DHT22;6414;49.570;6.060;2023-07-31T06:15:01;16.60;99.90
12700;DHT22;6414;49.570;6.060;2023-07-31T06:17:46;16.60;99.90
12700;DHT22;6414;49.570;6.060;2023-07-31T06:20:33;16.60;99.90
12700;DHT22;6414;49.570;6.060;2023-07-31T06:23:19;16.60;99.90
12700;DHT22;6414;49.570;6.060;2023-07-31T06:26:05;16.60;99.90
12700;DHT22;6414;49.570;6.060;2023-07-31T06:28:52;16.50;99.90
12700;DHT22;6414;49.570;6.060;2023-07-31T06:31:40;16.50;99.90
12700;DHT22;6414;49.570;6.060;2023-07-31T06:34:25;16.50;99.90
12700;DHT22;6414;49.570;6.060;2023-07-31T06:37:11;16.60;99.90
12700;DHT22;6414;49.570;6.060;2023-07-31T06:39:57;16.60;99.90
12700;DHT22;6414;49.570;6.060;2023-07-31T06:42:43;16.50;99.90
12700;DHT22;6414;49.570;6.060;2023-07-31T06:45:29;16.60;99.90
12700;DHT22;6414;49.570;6.060;2023-07-31T06:48:15;16.60;99.90
12700;DHT22;6414;49.570;6.060;2023-07-31T06:51:01;16.70;99.90
12700;DHT22;6414;49.570;6.060;2023-07-31T06:53:47;16.80;99.90
12700;DHT22;6414;49.570;6.060;2023-07-31T06:56:34;17.00;99.90
12700;DHT22;6414;49.570;6.060;2023-07-31T06:59:20;17.00;99.90
12700;DHT22;6414;49.570;6.060;2023-07-31T07:02:07;17.20;99.90
12700;DHT22;6414;49.570;6.060;2023-07-31T07:04:53;17.20;99.90
12700;DHT22;6414;49.570;6.060;2023-07-31T07:07:40;17.10;99.90
12700;DHT22;6414;49.570;6.060;2023-07-31T07:10:26;17.10;99.90
12700;DHT22;6414;49.570;6.060;2023-07-31T07:13:12;17.30;99.90
12700;DHT22;6414;49.570;6.060;2023-07-31T07:15:58;17.40;99.90
12700;DHT22;6414;49.570;6.060;2023-07-31T07:18:44;17.40;99.90
12700;DHT22;6414;49.570;6.060;2023-07-31T07:21:32;17.60;99.90
12700;DHT22;6414;49.570;6.060;2023-07-31T07:24:17;17.50;99.90
12700;DHT22;6414;49.570;6.060;2023-07-31T07:27:03;17.50;99.90
12700;DHT22;6414;49.570;6.060;2023-07-31T07:29:52;17.60;99.90
12700;DHT22;6414;49.570;6.060;2023-07-31T07:32:38;17.50;99.90
12700;DHT22;6414;49.570;6.060;2023-07-31T07:35:24;17.50;99.90
12700;DHT22;6414;49.570;6.060;2023-07-31T07:38:11;17.60;99.90
12700;DHT22;6414;49.570;6.060;2023-07-31T07:40:56;17.70;99.90
12700;DHT22;6414;49.570;6.060;2023-07-31T07:43:43;17.70;99.90
12700;DHT22;6414;49.570;6.060;2023-07-31T07:46:30;17.90;99.90
12700;DHT22;6414;49.570;6.060;2023-07-31T07:49:16;17.90;99.90
12700;DHT22;6414;49.570;6.060;2023-07-31T07:52:02;18.10;99.90
12700;DHT22;6414;49.570;6.060;2023-07-31T07:54:48;18.10;99.90
12700;DHT22;6414;49.570;6.060;2023-07-31T07:57:34;18.30;99.90
12700;DHT22;6414;49.570;6.060;2023-07-31T08:00:21;18.50;99.90
12700;DHT22;6414;49.570;6.060;2023-07-31T08:03:07;18.50;99.90
12700;DHT22;6414;49.570;6.060;2023-07-31T08:05:57;18.40;99.90
12700;DHT22;6414;49.570;6.060;2023-07-31T08:08:40;18.50;99.90
12700;DHT22;6414;49.570;6.060;2023-07-31T08:11:28;18.50;99.90
12700;DHT22;6414;49.570;6.060;2023-07-31T08:14:14;18.50;99.90
12700;DHT22;6414;49.570;6.060;2023-07-31T08:17:00;18.70;99.90
12700;DHT22;6414;49.570;6.060;2023-07-31T08:19:46;18.80;99.90
12700;DHT22;6414;49.570;6.060;2023-07-31T08:22:33;19.00;99.90
12700;DHT22;6414;49.570;6.060;2023-07-31T08:25:19;19.20;99.90
12700;DHT22;6414;49.570;6.060;2023-07-31T08:28:05;19.10;99.90
12700;DHT22;6414;49.570;6.060;2023-07-31T08:30:50;18.80;99.90
12700;DHT22;6414;49.570;6.060;2023-07-31T08:33:37;18.70;99.90
12700;DHT22;6414;49.570;6.060;2023-07-31T08:36:22;18.50;99.90
12700;DHT22;6414;49.570;6.060;2023-07-31T08:39:08;18.50;99.90
12700;DHT22;6414;49.570;6.060;2023-07-31T08:41:58;18.60;99.90
12700;DHT22;6414;49.570;6.060;2023-07-31T08:44:43;18.70;99.90
12700;DHT22;6414;49.570;6.060;2023-07-31T08:47:29;18.70;99.90
12700;DHT22;6414;49.570;6.060;2023-07-31T08:50:16;18.80;99.90
12700;DHT22;6414;49.570;6.060;2023-07-31T08:53:02;18.80;99.90
12700;DHT22;6414;49.570;6.060;2023-07-31T08:55:48;18.90;99.90
12700;DHT22;6414;49.570;6.060;2023-07-31T08:58:34;19.00;99.90
12700;DHT22;6414;49.570;6.060;2023-07-31T09:01:20;19.30;99.90
12700;DHT22;6414;49.570;6.060;2023-07-31T09:04:06;19.20;99.90
12700;DHT22;6414;49.570;6.060;2023-07-31T09:06:54;19.90;99.90
12700;DHT22;6414;49.570;6.060;2023-07-31T09:09:38;19.90;99.90
12700;DHT22;6414;49.570;6.060;2023-07-31T09:12:25;19.90;99.90
12700;DHT22;6414;49.570;6.060;2023-07-31T09:15:10;20.30;99.90
12700;DHT22;6414;49.570;6.060;2023-07-31T09:18:01;19.90;99.90
12700;DHT22;6414;49.570;6.060;2023-07-31T09:20:47;19.90;99.90
12700;DHT22;6414;49.570;6.060;2023-07-31T09:23:42;19.80;99.90
12700;DHT22;6414;49.570;6.060;2023-07-31T09:26:34;19.80;99.90
12700;DHT22;6414;49.570;6.060;2023-07-31T09:29:20;19.80;99.90
12700;DHT22;6414;49.570;6.060;2023-07-31T09:32:07;19.80;99.90
12700;DHT22;6414;49.570;6.060;2023-07-31T09:34:52;20.10;99.90
12700;DHT22;6414;49.570;6.060;2023-07-31T09:37:40;20.20;99.90
12700;DHT22;6414;49.570;6.060;2023-07-31T09:40:29;20.20;99.90
12700;DHT22;6414;49.570;6.060;2023-07-31T09:43:19;20.30;99.90
12700;DHT22;6414;49.570;6.060;2023-07-31T09:46:04;20.20;99.90
12700;DHT22;6414;49.570;6.060;2023-07-31T09:48:50;19.90;99.90
12700;DHT22;6414;49.570;6.060;2023-07-31T09:51:37;19.60;99.90
12700;DHT22;6414;49.570;6.060;2023-07-31T09:54:25;19.00;99.90
12700;DHT22;6414;49.570;6.060;2023-07-31T09:57:11;18.80;99.90
12700;DHT22;6414;49.570;6.060;2023-07-31T09:59:57;18.60;99.90
12700;DHT22;6414;49.570;6.060;2023-07-31T10:02:45;18.70;99.90
12700;DHT22;6414;49.570;6.060;2023-07-31T10:05:31;18.70;99.90
12700;DHT22;6414;49.570;6.060;2023-07-31T10:08:17;18.80;99.90
12700;DHT22;6414;49.570;6.060;2023-07-31T10:11:03;18.80;99.90
12700;DHT22;6414;49.570;6.060;2023-07-31T10:13:49;18.70;99.90
12700;DHT22;6414;49.570;6.060;2023-07-31T10:16:37;18.60;99.90
12700;DHT22;6414;49.570;6.060;2023-07-31T10:19:21;18.40;99.90
12700;DHT22;6414;49.570;6.060;2023-07-31T10:22:07;18.40;99.90
12700;DHT22;6414;49.570;6.060;2023-07-31T10:24:54;18.20;99.90
12700;DHT22;6414;49.570;6.060;2023-07-31T10:27:41;18.20;99.90
12700;DHT22;6414;49.570;6.060;2023-07-31T10:30:29;18.20;99.90
12700;DHT22;6414;49.570;6.060;2023-07-31T10:33:14;18.10;99.90
12700;DHT22;6414;49.570;6.060;2023-07-31T10:36:19;18.20;99.90
12700;DHT22;6414;49.570;6.060;2023-07-31T10:39:04;18.30;99.90
12700;DHT22;6414;49.570;6.060;2023-07-31T10:41:50;18.10;99.90
12700;DHT22;6414;49.570;6.060;2023-07-31T10:44:37;18.10;99.90
12700;DHT22;6414;49.570;6.060;2023-07-31T10:47:23;18.00;99.90
12700;DHT22;6414;49.570;6.060;2023-07-31T10:50:13;17.90;99.90
12700;DHT22;6414;49.570;6.060;2023-07-31T10:52:59;17.90;99.90
12700;DHT22;6414;49.570;6.060;2023-07-31T10:55:44;17.70;99.90
12700;DHT22;6414;49.570;6.060;2023-07-31T10:58:31;17.80;99.90
12700;DHT22;6414;49.570;6.060;2023-07-31T11:01:19;18.10;99.90
12700;DHT22;6414;49.570;6.060;2023-07-31T11:04:10;18.90;99.90
12700;DHT22;6414;49.570;6.060;2023-07-31T11:06:58;18.80;99.90
12700;DHT22;6414;49.570;6.060;2023-07-31T11:09:43;19.00;99.90
12700;DHT22;6414;49.570;6.060;2023-07-31T11:12:29;19.00;99.90
12700;DHT22;6414;49.570;6.060;2023-07-31T11:15:16;19.10;99.90
12700;DHT22;6414;49.570;6.060;2023-07-31T11:18:02;19.10;99.90
12700;DHT22;6414;49.570;6.060;2023-07-31T11:20:54;18.70;99.90
12700;DHT22;6414;49.570;6.060;2023-07-31T11:23:40;18.70;99.90
12700;DHT22;6414;49.570;6.060;2023-07-31T11:26:26;18.70;99.90
12700;DHT22;6414;49.570;6.060;2023-07-31T11:29:12;18.70;99.90
12700;DHT22;6414;49.570;6.060;2023-07-31T11:31:58;18.60;99.90
12700;DHT22;6414;49.570;6.060;2023-07-31T11:34:53;18.30;99.90
12700;DHT22;6414;49.570;6.060;2023-07-31T11:37:40;17.90;99.90
12700;DHT22;6414;49.570;6.060;2023-07-31T11:40:26;17.90;99.90
12700;DHT22;6414;49.570;6.060;2023-07-31T11:43:12;17.70;99.90
12700;DHT22;6414;49.570;6.060;2023-07-31T11:45:58;17.60;99.90
12700;DHT22;6414;49.570;6.060;2023-07-31T11:48:44;17.50;99.90
12700;DHT22;6414;49.570;6.060;2023-07-31T11:51:30;17.50;99.90
12700;DHT22;6414;49.570;6.060;2023-07-31T11:54:17;17.30;99.90
12700;DHT22;6414;49.570;6.060;2023-07-31T11:57:03;17.30;99.90
12700;DHT22;6414;49.570;6.060;2023-07-31T11:59:49;17.40;99.90
12700;DHT22;6414;49.570;6.060;2023-07-31T12:02:35;17.40;99.90
12700;DHT22;6414;49.570;6.060;2023-07-31T12:05:21;17.50;99.90
12700;DHT22;6414;49.570;6.060;2023-07-31T12:08:10;17.80;99.90
12700;DHT22;6414;49.570;6.060;2023-07-31T12:11:02;17.80;99.90
12700;DHT22;6414;49.570;6.060;2023-07-31T12:13:42;17.70;99.90
12700;DHT22;6414;49.570;6.060;2023-07-31T12:16:28;17.60;99.90
12700;DHT22;6414;49.570;6.060;2023-07-31T12:19:14;17.40;99.90
12700;DHT22;6414;49.570;6.060;2023-07-31T12:22:00;17.60;99.90
12700;DHT22;6414;49.570;6.060;2023-07-31T12:24:47;17.80;99.90
12700;DHT22;6414;49.570;6.060;2023-07-31T12:27:33;17.80;99.90
12700;DHT22;6414;49.570;6.060;2023-07-31T12:30:29;17.90;99.90
12700;DHT22;6414;49.570;6.060;2023-07-31T12:33:15;18.10;99.90
12700;DHT22;6414;49.570;6.060;2023-07-31T12:36:04;18.20;99.90
12700;DHT22;6414;49.570;6.060;2023-07-31T12:38:50;18.20;99.90
12700;DHT22;6414;49.570;6.060;2023-07-31T12:41:35;18.30;99.90
12700;DHT22;6414;49.570;6.060;2023-07-31T12:44:22;18.30;99.90
12700;DHT22;6414;49.570;6.060;2023-07-31T12:47:08;18.50;99.90
12700;DHT22;6414;49.570;6.060;2023-07-31T12:49:54;18.60;99.90
12700;DHT22;6414;49.570;6.060;2023-07-31T12:52:40;18.50;99.90
12700;DHT22;6414;49.570;6.060;2023-07-31T12:55:26;18.40;99.90
12700;DHT22;6414;49.570;6.060;2023-07-31T12:58:12;18.50;99.90
12700;DHT22;6414;49.570;6.060;2023-07-31T13:00:59;18.50;99.90
12700;DHT22;6414;49.570;6.060;2023-07-31T13:03:45;18.50;99.90
12700;DHT22;6414;49.570;6.060;2023-07-31T13:06:32;18.60;99.90
12700;DHT22;6414;49.570;6.060;2023-07-31T13:09:18;18.60;99.90
12700;DHT22;6414;49.570;6.060;2023-07-31T13:12:05;18.60;99.90
12700;DHT22;6414;49.570;6.060;2023-07-31T13:14:51;18.60;99.90
12700;DHT22;6414;49.570;6.060;2023-07-31T13:17:37;18.60;99.90
12700;DHT22;6414;49.570;6.060;2023-07-31T13:20:23;18.60;99.90
12700;DHT22;6414;49.570;6.060;2023-07-31T13:23:09;18.60;99.90
12700;DHT22;6414;49.570;6.060;2023-07-31T13:25:55;18.50;99.90
12700;DHT22;6414;49.570;6.060;2023-07-31T13:28:42;18.50;99.90
12700;DHT22;6414;49.570;6.060;2023-07-31T13:31:28;18.50;99.90
12700;DHT22;6414;49.570;6.060;2023-07-31T13:34:14;18.40;99.90
12700;DHT22;6414;49.570;6.060;2023-07-31T13:37:00;18.20;99.90
12700;DHT22;6414;49.570;6.060;2023-07-31T13:39:46;18.30;99.90
12700;DHT22;6414;49.570;6.060;2023-07-31T13:42:33;18.20;99.90
12700;DHT22;6414;49.570;6.060;2023-07-31T13:45:20;18.30;99.90
12700;DHT22;6414;49.570;6.060;2023-07-31T13:48:06;18.20;99.90
12700;DHT22;6414;49.570;6.060;2023-07-31T13:50:53;18.20;99.90
12700;DHT22;6414;49.570;6.060;2023-07-31T13:53:39;18.20;99.90
12700;DHT22;6414;49.570;6.060;2023-07-31T13:56:26;18.30;99.90
12700;DHT22;6414;49.570;6.060;2023-07-31T13:59:12;18.30;99.90
12700;DHT22;6414;49.570;6.060;2023-07-31T14:01:59;18.30;99.90
12700;DHT22;6414;49.570;6.060;2023-07-31T14:04:45;18.20;99.90
12700;DHT22;6414;49.570;6.060;2023-07-31T14:07:31;18.30;99.90
12700;DHT22;6414;49.570;6.060;2023-07-31T14:10:17;18.20;99.90
12700;DHT22;6414;49.570;6.060;2023-07-31T14:13:03;18.30;99.90
12700;DHT22;6414;49.570;6.060;2023-07-31T14:15:50;18.50;99.90
12700;DHT22;6414;49.570;6.060;2023-07-31T14:18:36;18.50;99.90
12700;DHT22;6414;49.570;6.060;2023-07-31T14:21:22;18.40;99.90
12700;DHT22;6414;49.570;6.060;2023-07-31T14:24:08;18.50;99.90
12700;DHT22;6414;49.570;6.060;2023-07-31T14:26:55;18.40;99.90
12700;DHT22;6414;49.570;6.060;2023-07-31T14:29:40;18.40;99.90
12700;DHT22;6414;49.570;6.060;2023-07-31T14:32:27;18.30;99.90
12700;DHT22;6414;49.570;6.060;2023-07-31T14:35:14;18.30;99.90
12700;DHT22;6414;49.570;6.060;2023-07-31T14:38:00;18.30;99.90
12700;DHT22;6414;49.570;6.060;2023-07-31T14:40:47;18.10;99.90
12700;DHT22;6414;49.570;6.060;2023-07-31T14:43:33;18.10;99.90
12700;DHT22;6414;49.570;6.060;2023-07-31T14:46:19;18.00;99.90
12700;DHT22;6414;49.570;6.060;2023-07-31T14:49:05;17.70;99.90
12700;DHT22;6414;49.570;6.060;2023-07-31T14:51:52;17.70;99.90
12700;DHT22;6414;49.570;6.060;2023-07-31T14:54:38;17.60;99.90
12700;DHT22;6414;49.570;6.060;2023-07-31T14:57:25;17.60;99.90
12700;DHT22;6414;49.570;6.060;2023-07-31T15:00:12;17.60;99.90
12700;DHT22;6414;49.570;6.060;2023-07-31T15:02:57;17.60;99.90
12700;DHT22;6414;49.570;6.060;2023-07-31T15:05:43;17.60;99.90
12700;DHT22;6414;49.570;6.060;2023-07-31T15:08:30;17.50;99.90
12700;DHT22;6414;49.570;6.060;2023-07-31T15:11:16;17.60;99.90
12700;DHT22;6414;49.570;6.060;2023-07-31T15:14:02;17.60;99.90
12700;DHT22;6414;49.570;6.060;2023-07-31T15:16:49;17.60;99.90
12700;DHT22;6414;49.570;6.060;2023-07-31T15:19:35;17.60;99.90
12700;DHT22;6414;49.570;6.060;2023-07-31T15:22:22;17.60;99.90
12700;DHT22;6414;49.570;6.060;2023-07-31T15:25:08;17.60;99.90
12700;DHT22;6414;49.570;6.060;2023-07-31T15:27:54;17.50;99.90
12700;DHT22;6414;49.570;6.060;2023-07-31T15:30:40;17.50;99.90
12700;DHT22;6414;49.570;6.060;2023-07-31T15:33:26;17.60;99.90
12700;DHT22;6414;49.570;6.060;2023-07-31T15:36:12;17.50;99.90
12700;DHT22;6414;49.570;6.060;2023-07-31T15:38:59;17.60;99.90
12700;DHT22;6414;49.570;6.060;2023-07-31T15:41:46;17.70;99.90
12700;DHT22;6414;49.570;6.060;2023-07-31T15:44:32;17.70;99.90
12700;DHT22;6414;49.570;6.060;2023-07-31T15:47:19;17.60;99.90
12700;DHT22;6414;49.570;6.060;2023-07-31T15:50:06;17.70;99.90
12700;DHT22;6414;49.570;6.060;2023-07-31T15:52:52;17.50;99.90
12700;DHT22;6414;49.570;6.060;2023-07-31T15:55:38;17.60;99.90
12700;DHT22;6414;49.570;6.060;2023-07-31T15:58:25;17.40;99.90
12700;DHT22;6414;49.570;6.060;2023-07-31T16:01:12;17.40;99.90
12700;DHT22;6414;49.570;6.060;2023-07-31T16:03:59;17.40;99.90
12700;DHT22;6414;49.570;6.060;2023-07-31T16:06:45;17.40;99.90
12700;DHT22;6414;49.570;6.060;2023-07-31T16:09:32;17.50;99.90
12700;DHT22;6414;49.570;6.060;2023-07-31T16:12:18;17.50;99.90
12700;DHT22;6414;49.570;6.060;2023-07-31T16:15:04;17.50;99.90
12700;DHT22;6414;49.570;6.060;2023-07-31T16:17:51;17.60;99.90
12700;DHT22;6414;49.570;6.060;2023-07-31T16:20:36;17.60;99.90
12700;DHT22;6414;49.570;6.060;2023-07-31T16:23:22;17.60;99.90
12700;DHT22;6414;49.570;6.060;2023-07-31T16:26:09;17.50;99.90
12700;DHT22;6414;49.570;6.060;2023-07-31T16:28:54;17.30;99.90
12700;DHT22;6414;49.570;6.060;2023-07-31T16:31:40;17.30;99.90
12700;DHT22;6414;49.570;6.060;2023-07-31T16:34:28;17.40;99.90
12700;DHT22;6414;49.570;6.060;2023-07-31T16:37:15;17.30;99.90
12700;DHT22;6414;49.570;6.060;2023-07-31T16:40:02;17.30;99.90
12700;DHT22;6414;49.570;6.060;2023-07-31T16:42:48;17.30;99.90
12700;DHT22;6414;49.570;6.060;2023-07-31T16:45:35;17.20;99.90
12700;DHT22;6414;49.570;6.060;2023-07-31T16:48:21;17.20;99.90
12700;DHT22;6414;49.570;6.060;2023-07-31T16:51:08;17.20;99.90
12700;DHT22;6414;49.570;6.060;2023-07-31T16:53:54;17.20;99.90
12700;DHT22;6414;49.570;6.060;2023-07-31T16:56:40;17.30;99.90
12700;DHT22;6414;49.570;6.060;2023-07-31T16:59:26;17.30;99.90
12700;DHT22;6414;49.570;6.060;2023-07-31T17:02:12;17.30;99.90
12700;DHT22;6414;49.570;6.060;2023-07-31T17:04:58;17.20;99.90
12700;DHT22;6414;49.570;6.060;2023-07-31T17:07:44;17.20;99.90
12700;DHT22;6414;49.570;6.060;2023-07-31T17:10:30;17.20;99.90
12700;DHT22;6414;49.570;6.060;2023-07-31T17:13:17;17.20;99.90
12700;DHT22;6414;49.570;6.060;2023-07-31T17:16:03;17.20;99.90
12700;DHT22;6414;49.570;6.060;2023-07-31T17:18:49;17.20;99.90
12700;DHT22;6414;49.570;6.060;2023-07-31T17:21:35;17.10;99.90
12700;DHT22;6414;49.570;6.060;2023-07-31T17:24:21;17.20;99.90
12700;DHT22;6414;49.570;6.060;2023-07-31T17:27:07;17.20;99.90
12700;DHT22;6414;49.570;6.060;2023-07-31T17:29:55;17.20;99.90
12700;DHT22;6414;49.570;6.060;2023-07-31T17:32:40;17.20;99.90
12700;DHT22;6414;49.570;6.060;2023-07-31T17:35:26;17.20;99.90
12700;DHT22;6414;49.570;6.060;2023-07-31T17:38:12;17.30;99.90
12700;DHT22;6414;49.570;6.060;2023-07-31T17:40:58;17.20;99.90
12700;DHT22;6414;49.570;6.060;2023-07-31T17:43:44;17.20;99.90
12700;DHT22;6414;49.570;6.060;2023-07-31T17:46:30;17.30;99.90
12700;DHT22;6414;49.570;6.060;2023-07-31T17:49:16;17.20;99.90